Time;durP1;ratioP1;P1;durP2;ratioP2;P2;SDS_P1;SDS_P2;PMS_P1;PMS_P2;Temp;Humidity;BMP_temperature;BMP_pressure;BME280_temperature;BME280_humidity;BME280_pressure;Samples;Min_cycle;Max_cycle;Signal;HPM_P1;HPM_P2
2022/12/10 00:02:05;;;;;;;50.38;40.28;;;-2.20;99.90;;;;;;5073668;28;20089;-78
2022/12/10 00:04:31;;;;;;;49.03;40.03;;;-2.20;99.90;;;;;;5073667;28;20032;-78
2022/12/10 00:06:56;;;;;;;48.22;38.72;;;-2.20;99.90;;;;;;5090069;28;20028;-78
2022/12/10 00:09:22;;;;;;;49.72;38.85;;;-2.30;99.90;;;;;;5073023;28;20052;-78
2022/12/10 00:11:48;;;;;;;50.28;38.95;;;-2.20;99.90;;;;;;5073361;28;20028;-78
2022/12/10 00:14:14;;;;;;;48.72;39.72;;;-2.20;99.90;;;;;;5073283;28;20031;-78
2022/12/10 00:16:41;;;;;;;46.33;35.72;;;-2.40;99.90;;;;;;5073218;28;20020;-78
2022/12/10 00:19:07;;;;;;;36.35;32.47;;;-2.50;99.90;;;;;;5090231;28;20028;-78
2022/12/10 00:21:34;;;;;;;42.63;37.30;;;-2.50;99.90;;;;;;5052548;28;20037;-78
2022/12/10 00:24:00;;;;;;;40.38;34.03;;;-2.50;99.90;;;;;;5052160;28;20043;-78
2022/12/10 00:26:32;;;;;;;53.20;39.67;;;-2.60;99.90;;;;;;5070188;28;20043;-78
2022/12/10 00:28:59;;;;;;;45.33;35.58;;;-2.60;99.90;;;;;;5089845;28;20402;-78
2022/12/10 00:31:32;;;;;;;52.42;39.00;;;-2.50;99.90;;;;;;5068781;28;20036;-78
2022/12/10 00:34:00;;;;;;;46.35;36.95;;;-2.50;99.90;;;;;;5052947;28;20051;-77
2022/12/10 00:36:33;;;;;;;49.38;43.55;;;-2.50;99.90;;;;;;5069168;28;20032;-77
2022/12/10 00:38:59;;;;;;;50.00;39.00;;;-2.50;99.90;;;;;;5069384;28;20035;-78
2022/12/10 00:41:27;;;;;;;59.40;44.83;;;-2.50;99.90;;;;;;5104296;28;20066;-78
2022/12/10 00:43:53;;;;;;;48.83;39.50;;;-2.40;99.90;;;;;;5089529;28;20100;-78
2022/12/10 00:46:19;;;;;;;43.88;37.58;;;-2.40;99.90;;;;;;5072752;28;20687;-77
2022/12/10 00:48:46;;;;;;;48.58;38.97;;;-2.20;99.90;;;;;;5072543;28;20513;-78
2022/12/10 00:51:24;;;;;;;48.85;41.75;;;-2.20;99.90;;;;;;5068889;28;20032;-78
2022/12/10 00:53:52;;;;;;;48.15;40.80;;;-2.20;99.90;;;;;;5069355;28;20032;-78
2022/12/10 00:56:21;;;;;;;56.72;39.70;;;-2.10;99.90;;;;;;5085510;28;20484;-78
2022/12/10 00:58:48;;;;;;;53.33;38.03;;;-2.00;99.90;;;;;;5088493;28;20038;-78
2022/12/10 01:01:19;;;;;;;50.90;39.75;;;-1.90;99.90;;;;;;5055929;28;20032;-78
2022/12/10 01:03:48;;;;;;;56.45;44.47;;;-1.70;99.90;;;;;;5089109;28;20437;-78
2022/12/10 01:06:16;;;;;;;69.88;48.03;;;-1.60;99.90;;;;;;5072345;28;20092;-78
2022/12/10 01:08:43;;;;;;;68.32;42.03;;;-1.50;99.90;;;;;;5088640;28;20028;-78
2022/12/10 01:11:11;;;;;;;56.05;40.67;;;-1.50;99.90;;;;;;5072388;28;20032;-78
2022/12/10 01:13:37;;;;;;;57.42;43.38;;;-1.10;99.90;;;;;;5072111;28;20248;-78
2022/12/10 01:16:05;;;;;;;52.83;42.05;;;-1.30;99.90;;;;;;5072202;28;20024;-78
2022/12/10 01:18:31;;;;;;;49.83;42.47;;;-1.20;99.90;;;;;;5071890;28;20491;-78
2022/12/10 01:21:03;;;;;;;63.38;43.58;;;-1.20;99.90;;;;;;5072208;28;20024;-78
2022/12/10 01:23:32;;;;;;;50.90;39.35;;;-1.10;99.90;;;;;;5088725;28;20386;-78
2022/12/10 01:26:07;;;;;;;55.10;40.00;;;-1.10;99.90;;;;;;5088644;28;20028;-78
2022/12/10 01:28:37;;;;;;;53.65;40.80;;;-1.00;99.90;;;;;;5071702;28;20040;-78
2022/12/10 01:31:05;;;;;;;56.20;42.80;;;-0.90;99.90;;;;;;5088471;28;20111;-78
2022/12/10 01:33:32;;;;;;;56.00;42.60;;;-1.00;99.90;;;;;;5071902;28;20652;-78
2022/12/10 01:36:08;;;;;;;53.75;41.92;;;-0.90;99.90;;;;;;5088303;28;20028;-78
2022/12/10 01:38:36;;;;;;;62.13;43.70;;;-0.90;99.90;;;;;;5088259;28;20047;-78
2022/12/10 01:41:05;;;;;;;56.70;43.25;;;-0.80;99.90;;;;;;5088088;28;20028;-78
2022/12/10 01:43:52;;;;;;;56.72;40.30;;;-0.80;99.90;;;;;;5071754;28;20035;-78
2022/12/10 01:46:19;;;;;;;51.40;40.00;;;-0.80;99.90;;;;;;5071785;28;20031;-78
2022/12/10 01:48:45;;;;;;;52.92;42.45;;;-0.80;99.90;;;;;;5071263;28;20089;-78
2022/12/10 01:51:13;;;;;;;62.00;44.38;;;-0.70;99.90;;;;;;5088053;28;20020;-78
2022/12/10 01:53:40;;;;;;;51.67;40.15;;;-0.70;99.90;;;;;;5071657;28;20024;-78
2022/12/10 01:56:10;;;;;;;47.35;38.88;;;-0.70;99.90;;;;;;5106474;28;20028;-78
2022/12/10 01:58:37;;;;;;;55.10;39.92;;;-0.70;99.90;;;;;;5087884;28;20117;-78
2022/12/10 02:01:11;;;;;;;55.00;43.40;;;-0.70;99.90;;;;;;5087963;28;20028;-78
2022/12/10 02:03:55;;;;;;;51.38;38.22;;;-0.70;99.90;;;;;;5071409;28;20028;-78
2022/12/10 02:06:37;;;;;;;46.03;39.60;;;-0.70;99.90;;;;;;5088446;28;20028;-78
2022/12/10 02:09:29;;;;;;;51.05;39.53;;;-0.80;99.90;;;;;;5088152;28;20070;-78
2022/12/10 02:12:22;;;;;;;50.75;38.33;;;-0.80;99.90;;;;;;5071383;28;20039;-78
2022/12/10 02:15:12;;;;;;;45.85;37.67;;;-0.80;99.90;;;;;;5087921;28;20494;-79
2022/12/10 02:17:46;;;;;;;53.97;40.55;;;-0.80;99.90;;;;;;5071260;28;20043;-79
2022/12/10 02:20:20;;;;;;;46.60;39.53;;;-0.80;99.90;;;;;;5088253;28;20031;-78
2022/12/10 02:23:14;;;;;;;56.97;41.10;;;-0.70;99.90;;;;;;5071085;28;20036;-78
2022/12/10 02:25:49;;;;;;;57.63;40.97;;;-0.70;99.90;;;;;;5071278;28;20020;-78
2022/12/10 02:28:44;;;;;;;61.60;43.78;;;-0.60;99.90;;;;;;5087712;28;20017;-78
2022/12/10 02:31:14;;;;;;;52.55;41.50;;;-0.60;99.90;;;;;;5066331;28;20040;-78
2022/12/10 02:33:46;;;;;;;47.20;31.70;;;-0.60;99.90;;;;;;5071201;28;20394;-78
2022/12/10 02:36:14;;;;;;;51.45;40.67;;;-0.60;99.90;;;;;;5070964;28;20028;-78
2022/12/10 02:38:43;;;;;;;48.58;37.72;;;-0.60;99.90;;;;;;5087331;28;20036;-78
2022/12/10 02:41:17;;;;;;;54.23;41.40;;;-0.60;99.90;;;;;;5087721;28;20051;-79
2022/12/10 02:43:46;;;;;;;54.47;37.47;;;-0.20;99.90;;;;;;5087785;28;20028;-78
2022/12/10 02:46:12;;;;;;;51.25;37.38;;;-0.70;99.90;;;;;;5070591;28;20024;-78
2022/12/10 02:48:40;;;;;;;62.15;42.38;;;-0.70;99.90;;;;;;5058077;28;20039;-78
2022/12/10 02:51:07;;;;;;;47.38;39.55;;;-0.60;99.90;;;;;;5074788;28;20024;-78
2022/12/10 02:53:40;;;;;;;68.93;43.20;;;-0.60;99.90;;;;;;5075239;28;20028;-78
2022/12/10 02:56:33;;;;;;;55.08;42.65;;;-0.60;99.90;;;;;;5074164;28;20098;-78
2022/12/10 02:59:18;;;;;;;53.88;40.40;;;-0.60;99.90;;;;;;5074817;28;20482;-78
2022/12/10 03:01:58;;;;;;;52.13;41.00;;;-0.60;99.90;;;;;;5075389;28;20021;-78
2022/12/10 03:05:01;;;;;;;55.60;41.17;;;-0.60;99.90;;;;;;5091420;28;20016;-78
2022/12/10 03:07:39;;;;;;;51.13;39.05;;;-0.50;99.90;;;;;;5081763;28;20103;-78
2022/12/10 03:10:45;;;;;;;48.58;35.92;;;-0.50;99.90;;;;;;5070888;28;20024;-78
2022/12/10 03:13:14;;;;;;;56.50;38.45;;;-0.50;99.90;;;;;;5034180;28;20040;-78
2022/12/10 03:15:42;;;;;;;52.72;40.03;;;-0.50;99.90;;;;;;5089022;28;20025;-78
2022/12/10 03:18:11;;;;;;;53.33;37.55;;;-0.50;99.90;;;;;;5073840;28;20536;-78
2022/12/10 03:20:41;;;;;;;54.13;39.97;;;-0.50;99.90;;;;;;5074463;28;20077;-78
2022/12/10 03:23:11;;;;;;;60.45;40.13;;;-0.40;99.90;;;;;;5074280;28;20118;-78
2022/12/10 03:25:39;;;;;;;57.78;40.75;;;-0.50;99.90;;;;;;5090899;28;20047;-78
2022/12/10 03:28:07;;;;;;;54.58;38.28;;;-0.40;99.90;;;;;;5090742;28;20069;-78
2022/12/10 03:30:34;;;;;;;46.22;39.28;;;-0.50;99.90;;;;;;5090734;28;20061;-78
2022/12/10 03:33:00;;;;;;;53.10;43.58;;;-0.50;99.90;;;;;;5090702;28;20032;-77
2022/12/10 03:35:27;;;;;;;67.28;41.60;;;-0.50;99.90;;;;;;5109065;28;20054;-78
2022/12/10 03:37:53;;;;;;;56.25;40.90;;;-0.50;99.90;;;;;;5108451;28;20476;-78
2022/12/10 03:40:25;;;;;;;63.13;40.15;;;-0.50;99.90;;;;;;5090553;28;20047;-78
2022/12/10 03:42:51;;;;;;;51.15;40.50;;;-0.50;99.90;;;;;;5109003;28;20024;-78
2022/12/10 03:45:20;;;;;;;52.60;39.67;;;-0.40;99.90;;;;;;5073783;28;20111;-78
2022/12/10 03:47:46;;;;;;;50.90;40.50;;;-0.50;99.90;;;;;;5073476;28;20085;-78
2022/12/10 03:50:12;;;;;;;69.47;41.95;;;-0.50;99.90;;;;;;5090560;28;20032;-78
2022/12/10 03:52:40;;;;;;;52.95;41.30;;;-0.40;99.90;;;;;;5090402;28;20036;-78
2022/12/10 03:55:06;;;;;;;62.15;41.95;;;-0.60;99.90;;;;;;5070423;28;20036;-78
2022/12/10 03:57:33;;;;;;;61.22;41.78;;;-0.50;99.90;;;;;;5070215;28;20035;-78
2022/12/10 03:59:58;;;;;;;57.25;39.97;;;-0.50;99.90;;;;;;5087009;28;20031;-78
2022/12/10 04:02:24;;;;;;;63.17;40.72;;;-0.50;99.90;;;;;;5053640;28;20037;-78
2022/12/10 04:04:50;;;;;;;59.20;42.33;;;-0.50;99.90;;;;;;5056874;28;20063;-78
2022/12/10 04:07:17;;;;;;;58.65;42.45;;;-0.50;99.90;;;;;;5073579;28;20039;-78
2022/12/10 04:09:43;;;;;;;61.85;44.50;;;-0.50;99.90;;;;;;5090112;28;20024;-78
2022/12/10 04:12:08;;;;;;;54.95;41.10;;;-0.60;99.90;;;;;;5090178;28;20376;-78
2022/12/10 04:17:19;;;;;;;51.17;38.15;;;-0.50;99.90;;;;;;5069900;28;20088;-78
2022/12/10 04:19:45;;;;;;;50.65;38.28;;;-0.50;99.90;;;;;;5053123;28;20031;-78
2022/12/10 04:27:40;;;;;;;58.92;42.10;;;-0.50;99.90;;;;;;5055739;28;20033;-78
2022/12/10 04:30:10;;;;;;;61.22;41.20;;;-0.50;99.90;;;;;;5052965;28;20056;-78
2022/12/10 04:32:35;;;;;;;40.67;32.05;;;-0.50;99.90;;;;;;5069616;28;20483;-79
2022/12/10 04:35:05;;;;;;;65.53;46.15;;;-0.50;99.90;;;;;;5073384;28;20024;-78
2022/12/10 04:37:30;;;;;;;63.17;44.43;;;-0.50;99.90;;;;;;5089383;28;20044;-78
2022/12/10 04:39:58;;;;;;;59.08;41.85;;;-0.50;99.90;;;;;;5089523;28;20089;-78
2022/12/10 04:42:24;;;;;;;64.18;44.70;;;-0.50;99.90;;;;;;5089633;28;20028;-78
2022/12/10 04:44:50;;;;;;;57.58;43.10;;;-0.50;99.90;;;;;;5089130;28;20095;-78
2022/12/10 04:47:16;;;;;;;58.33;41.78;;;-0.50;99.90;;;;;;5089586;28;20428;-78
2022/12/10 04:49:43;;;;;;;56.42;38.90;;;-0.50;99.90;;;;;;5089650;28;20024;-78
2022/12/10 04:52:14;;;;;;;62.85;43.25;;;-0.50;99.90;;;;;;5089214;28;20055;-78
2022/12/10 04:54:40;;;;;;;60.85;42.60;;;-0.60;99.90;;;;;;5089239;28;20017;-78
2022/12/10 04:57:08;;;;;;;53.63;40.40;;;-0.50;99.90;;;;;;5089157;28;20035;-78
2022/12/10 04:59:35;;;;;;;60.38;43.28;;;-0.60;99.90;;;;;;5089146;28;20024;-78
2022/12/10 05:02:01;;;;;;;56.10;40.58;;;-0.60;99.90;;;;;;5107267;28;20487;-78
2022/12/10 05:04:26;;;;;;;56.83;42.53;;;-0.60;99.90;;;;;;5089204;28;20039;-78
2022/12/10 05:06:52;;;;;;;47.60;40.20;;;-0.50;99.90;;;;;;5088772;28;20024;-78
2022/12/10 05:09:18;;;;;;;60.08;41.13;;;-0.50;99.90;;;;;;5088883;28;20555;-78
2022/12/10 05:11:44;;;;;;;55.50;40.97;;;-0.50;99.90;;;;;;5088977;28;20103;-78
2022/12/10 05:14:12;;;;;;;66.97;41.05;;;-0.50;99.90;;;;;;5106923;28;20024;-78
2022/12/10 05:16:38;;;;;;;55.35;40.83;;;-0.20;99.90;;;;;;5088423;28;20085;-78
2022/12/10 05:19:04;;;;;;;58.58;38.70;;;-0.50;99.90;;;;;;5072124;28;20032;-78
2022/12/10 05:24:15;;;;;;;60.55;40.40;;;-0.50;99.90;;;;;;5106784;28;20489;-78
2022/12/10 05:26:42;;;;;;;62.53;45.72;;;-0.50;99.90;;;;;;5068561;28;20032;-78
2022/12/10 05:29:09;;;;;;;46.10;35.65;;;-0.50;99.90;;;;;;5088066;28;20032;-78
2022/12/10 05:31:35;;;;;;;51.85;38.13;;;-0.50;99.90;;;;;;5106665;28;20028;-78
2022/12/10 05:34:01;;;;;;;61.38;42.30;;;-0.50;99.90;;;;;;5106583;28;20024;-78
2022/12/10 05:36:29;;;;;;;63.50;43.30;;;-0.50;99.90;;;;;;5088002;28;20032;-78
2022/12/10 05:38:58;;;;;;;56.15;39.47;;;-0.60;99.90;;;;;;5106576;28;20035;-78
2022/12/10 05:41:30;;;;;;;56.03;41.42;;;-0.50;99.90;;;;;;5071644;28;20032;-78
2022/12/10 05:43:58;;;;;;;56.40;39.97;;;-0.60;99.90;;;;;;5106668;28;20032;-79
2022/12/10 05:46:26;;;;;;;59.03;41.88;;;-0.50;99.90;;;;;;5088092;28;20028;-79
2022/12/10 05:48:53;;;;;;;52.10;37.88;;;-0.50;99.90;;;;;;5106312;28;20028;-78
2022/12/10 05:51:21;;;;;;;61.90;40.67;;;-0.50;99.90;;;;;;5106287;28;20028;-79
2022/12/10 05:53:47;;;;;;;52.28;38.92;;;-0.50;99.90;;;;;;5106620;28;20106;-78
2022/12/10 05:56:18;;;;;;;80.13;44.83;;;-0.50;99.90;;;;;;5106066;28;20035;-79
2022/12/10 05:58:46;;;;;;;59.97;39.67;;;-0.50;99.90;;;;;;5088136;28;20054;-78
2022/12/10 06:01:14;;;;;;;53.70;39.17;;;-0.50;99.90;;;;;;5106312;28;20028;-79
2022/12/10 06:03:44;;;;;;;61.53;42.00;;;-0.50;99.90;;;;;;5106261;28;20036;-78
2022/12/10 06:06:10;;;;;;;62.25;42.78;;;-0.60;99.90;;;;;;5071786;28;20032;-78
2022/12/10 06:08:38;;;;;;;62.60;43.80;;;-0.50;99.90;;;;;;5088282;28;20028;-79
2022/12/10 06:11:09;;;;;;;60.05;41.55;;;-0.60;99.90;;;;;;5088141;28;20486;-78
2022/12/10 06:13:35;;;;;;;58.70;41.60;;;-0.60;99.90;;;;;;5106091;28;20028;-78
2022/12/10 06:16:05;;;;;;;59.22;43.28;;;-0.50;99.90;;;;;;5105873;28;20012;-79
2022/12/10 06:18:32;;;;;;;60.22;43.90;;;-0.60;99.90;;;;;;5088178;28;20051;-79
2022/12/10 06:20:58;;;;;;;58.85;42.60;;;-0.60;99.90;;;;;;5087872;28;20039;-79
2022/12/10 06:23:23;;;;;;;59.30;43.25;;;-0.60;99.90;;;;;;5091264;28;20024;-78
2022/12/10 06:25:49;;;;;;;64.65;43.83;;;-0.60;99.90;;;;;;5091854;28;20587;-79
2022/12/10 06:28:15;;;;;;;59.28;42.50;;;-0.50;99.90;;;;;;5110153;28;20115;-79
2022/12/10 06:30:41;;;;;;;61.47;41.78;;;-0.50;99.90;;;;;;5091796;28;20035;-78
2022/12/10 06:33:07;;;;;;;59.88;42.45;;;-0.50;99.90;;;;;;5091978;28;20028;-78
2022/12/10 06:35:33;;;;;;;54.45;38.63;;;-0.40;99.90;;;;;;5109834;28;20024;-79
2022/12/10 06:37:59;;;;;;;58.55;40.33;;;-0.50;99.90;;;;;;5087920;28;20478;-79
2022/12/10 06:40:25;;;;;;;65.63;40.78;;;-0.60;99.90;;;;;;5071069;28;20028;-79
2022/12/10 06:42:52;;;;;;;69.43;43.75;;;-0.60;99.90;;;;;;5072611;28;20025;-78
2022/12/10 06:45:18;;;;;;;60.35;38.15;;;-0.60;99.90;;;;;;5071714;28;20044;-79
2022/12/10 06:47:44;;;;;;;59.83;40.60;;;-0.60;99.90;;;;;;5067472;28;20026;-78
2022/12/10 06:50:09;;;;;;;56.70;40.90;;;-0.50;99.90;;;;;;5081446;28;20074;-78
2022/12/10 06:52:35;;;;;;;61.17;41.67;;;-0.60;99.90;;;;;;5106032;28;20424;-78
2022/12/10 06:55:01;;;;;;;68.35;42.00;;;-0.50;99.90;;;;;;5094973;28;20031;-79
2022/12/10 06:57:27;;;;;;;64.15;42.20;;;-0.50;99.90;;;;;;5073012;28;20048;-78
2022/12/10 06:59:53;;;;;;;58.47;40.72;;;-0.50;99.90;;;;;;5075067;28;20612;-78
2022/12/10 07:02:19;;;;;;;62.53;42.58;;;-0.50;99.90;;;;;;5090198;28;20036;-78
2022/12/10 07:04:45;;;;;;;64.00;40.38;;;-0.50;99.90;;;;;;5040685;28;20049;-78
2022/12/10 07:07:11;;;;;;;58.97;42.03;;;-0.40;99.90;;;;;;5090395;28;20070;-79
2022/12/10 07:09:37;;;;;;;51.60;38.08;;;-0.60;99.90;;;;;;5083289;28;20037;-79
2022/12/10 07:12:04;;;;;;;57.45;39.08;;;-0.60;99.90;;;;;;5069801;28;20025;-78
2022/12/10 07:14:29;;;;;;;53.63;38.53;;;-0.50;99.90;;;;;;5090156;28;20028;-79
2022/12/10 07:16:55;;;;;;;63.97;39.78;;;-0.50;99.90;;;;;;5040710;28;20054;-78
2022/12/10 07:19:21;;;;;;;58.00;38.95;;;-0.40;99.90;;;;;;5073925;28;20032;-79
2022/12/10 07:21:47;;;;;;;47.13;36.30;;;-0.60;99.90;;;;;;5108696;28;20454;-78
2022/12/10 07:24:16;;;;;;;56.17;38.78;;;-0.60;99.90;;;;;;5057215;28;20032;-79
2022/12/10 07:26:43;;;;;;;69.47;39.80;;;-0.60;99.90;;;;;;5108705;28;20106;-79
2022/12/10 07:29:14;;;;;;;59.42;42.10;;;-0.60;99.90;;;;;;5090551;28;20028;-78
2022/12/10 07:31:40;;;;;;;59.00;44.17;;;-0.70;99.90;;;;;;5090298;28;20024;-79
2022/12/10 07:34:06;;;;;;;60.47;43.45;;;-0.70;99.90;;;;;;5056627;28;20402;-78
2022/12/10 07:36:32;;;;;;;62.03;43.60;;;-0.70;99.90;;;;;;5108560;28;20038;-79
2022/12/10 07:38:58;;;;;;;61.92;44.05;;;-0.70;99.90;;;;;;5089640;28;20060;-79
2022/12/10 07:41:25;;;;;;;49.90;39.65;;;-0.80;99.90;;;;;;5090399;28;20024;-78
2022/12/10 07:43:52;;;;;;;73.30;42.83;;;-0.70;99.90;;;;;;5090656;28;20016;-79
2022/12/10 07:46:24;;;;;;;60.42;46.33;;;-0.70;99.90;;;;;;5076184;28;20031;-79
2022/12/10 07:48:50;;;;;;;56.97;44.40;;;-0.70;99.90;;;;;;5082131;28;20028;-78
2022/12/10 07:51:18;;;;;;;56.10;38.55;;;-0.60;99.90;;;;;;5057171;28;20024;-79
2022/12/10 07:53:44;;;;;;;54.60;40.70;;;-0.60;99.90;;;;;;5090410;28;20026;-78
2022/12/10 07:56:10;;;;;;;70.10;43.13;;;-0.60;99.90;;;;;;5089701;28;20036;-78
2022/12/10 07:58:37;;;;;;;70.55;42.63;;;-0.70;99.90;;;;;;5073815;28;20057;-78
2022/12/10 08:01:07;;;;;;;61.50;42.72;;;-0.70;99.90;;;;;;5072923;28;20105;-79
2022/12/10 08:03:33;;;;;;;73.15;40.90;;;-0.70;99.90;;;;;;5089843;28;20047;-79
2022/12/10 08:06:05;;;;;;;51.67;40.45;;;-0.60;99.90;;;;;;5069901;28;20055;-79
2022/12/10 08:08:33;;;;;;;59.42;42.83;;;-0.60;99.90;;;;;;5072910;28;20394;-78
2022/12/10 08:11:03;;;;;;;52.95;39.92;;;-0.60;99.90;;;;;;5072829;28;20016;-78
2022/12/10 08:13:29;;;;;;;;;;;-0.60;99.90;;;;;;5108396;28;20080;-78
2022/12/10 08:16:05;;;;;;;58.30;36.53;;;-0.50;99.90;;;;;;5073077;28;19919;-78
2022/12/10 08:18:32;;;;;;;72.35;43.72;;;-0.50;99.90;;;;;;5071928;28;20017;-79
2022/12/10 08:20:58;;;;;;;58.53;43.20;;;-0.50;99.90;;;;;;5089162;28;20038;-79
2022/12/10 08:23:24;;;;;;;63.60;40.03;;;-0.50;99.90;;;;;;5089567;28;20478;-79
2022/12/10 08:25:50;;;;;;;60.92;39.38;;;-0.50;99.90;;;;;;5107750;28;20031;-78
2022/12/10 08:28:16;;;;;;;53.22;38.28;;;-0.50;99.90;;;;;;5089448;28;20036;-79
2022/12/10 08:30:46;;;;;;;60.70;34.28;;;-0.50;99.90;;;;;;5072507;28;20018;-79
2022/12/10 08:33:12;;;;;;;60.30;39.97;;;-0.50;99.90;;;;;;5089398;28;20530;-79
2022/12/10 08:35:38;;;;;;;63.13;42.58;;;-0.40;99.90;;;;;;5089237;28;20024;-79
2022/12/10 08:38:04;;;;;;;57.30;39.92;;;-0.50;99.90;;;;;;5073637;28;20059;-78
2022/12/10 08:40:29;;;;;;;53.50;43.13;;;-0.40;99.90;;;;;;5089734;28;20032;-79
2022/12/10 08:42:55;;;;;;;64.32;41.72;;;-0.40;99.90;;;;;;5088968;28;20097;-79
2022/12/10 08:45:21;;;;;;;53.35;40.10;;;-0.40;99.90;;;;;;5106805;28;20023;-79
2022/12/10 08:47:48;;;;;;;56.95;38.67;;;-0.40;99.90;;;;;;5107566;28;20044;-79
2022/12/10 08:50:13;;;;;;;63.35;41.05;;;-0.30;99.90;;;;;;5107347;28;20056;-79
2022/12/10 08:52:39;;;;;;;57.33;40.75;;;-0.30;99.90;;;;;;5107165;28;20024;-79
2022/12/10 08:55:05;;;;;;;68.72;43.58;;;-0.30;99.90;;;;;;5088896;28;20035;-79
2022/12/10 08:57:32;;;;;;;55.15;41.28;;;-0.30;99.90;;;;;;5055998;28;20032;-79
2022/12/10 08:59:58;;;;;;;54.30;36.88;;;-0.20;99.90;;;;;;5089474;28;20028;-79
2022/12/10 09:02:23;;;;;;;56.25;40.50;;;-0.20;99.90;;;;;;5106708;28;20054;-78
2022/12/10 09:04:50;;;;;;;61.80;46.50;;;-0.20;99.90;;;;;;5072415;28;20035;-79
2022/12/10 09:07:16;;;;;;;58.60;39.90;;;-0.20;99.90;;;;;;5089144;28;20028;-79
2022/12/10 09:09:41;;;;;;;52.40;38.08;;;-0.10;99.90;;;;;;5106934;28;20043;-79
2022/12/10 09:12:07;;;;;;;57.50;39.38;;;-0.20;99.90;;;;;;5071917;28;20032;-80
2022/12/10 09:14:33;;;;;;;58.38;41.78;;;-0.20;99.90;;;;;;5072234;28;20062;-79
2022/12/10 09:17:02;;;;;;;57.97;41.47;;;-0.10;99.90;;;;;;5087436;28;20054;-79
2022/12/10 09:19:28;;;;;;;41.73;29.37;;;-0.10;99.90;;;;;;5100439;28;20020;-79
2022/12/10 09:21:54;;;;;;;62.78;41.47;;;-0.10;99.90;;;;;;5067897;28;20029;-79
2022/12/10 09:24:19;;;;;;;61.28;37.65;;;-0.20;99.90;;;;;;5062386;28;20097;-79
2022/12/10 09:26:46;;;;;;;70.07;42.97;;;-0.30;99.90;;;;;;5095389;28;20091;-79
2022/12/10 09:29:13;;;;;;;58.33;38.70;;;-0.30;99.90;;;;;;5099640;28;20028;-80
2022/12/10 09:31:39;;;;;;;53.00;41.95;;;-0.20;99.90;;;;;;5091581;28;20118;-79
2022/12/10 09:34:04;;;;;;;49.97;36.33;;;-0.20;99.90;;;;;;5101285;28;20031;-79
2022/12/10 09:36:30;;;;;;;53.20;35.80;;;0.00;99.90;;;;;;5065623;28;20034;-79
2022/12/10 09:38:57;;;;;;;58.45;36.22;;;-0.10;99.90;;;;;;5106292;28;20073;-80
2022/12/10 09:41:35;;;;;;;40.28;32.88;;;-0.10;99.90;;;;;;5088099;28;20058;-79
2022/12/10 09:44:24;;;;;;;64.00;40.88;;;-0.10;99.90;;;;;;5070780;28;20028;-80
2022/12/10 09:46:57;;;;;;;55.70;36.92;;;-0.10;99.90;;;;;;5084737;28;20114;-79
2022/12/10 09:49:46;;;;;;;56.60;37.08;;;-0.10;99.90;;;;;;5102908;28;20051;-79
2022/12/10 09:52:17;;;;;;;59.92;39.72;;;-0.20;99.90;;;;;;5079356;28;20482;-79
2022/12/10 09:55:01;;;;;;;63.42;42.45;;;-0.40;99.90;;;;;;5071935;28;20034;-79
2022/12/10 09:57:31;;;;;;;65.03;46.13;;;-0.40;99.90;;;;;;5087878;28;20040;-79
2022/12/10 10:00:03;;;;;;;60.63;40.22;;;-0.30;99.90;;;;;;5087853;28;20060;-80
2022/12/10 10:02:38;;;;;;;55.88;39.10;;;-0.20;99.90;;;;;;5089148;28;20036;-79
2022/12/10 10:05:07;;;;;;;58.22;39.60;;;-0.20;99.90;;;;;;5088226;28;20047;-78
2022/12/10 10:07:38;;;;;;;54.55;37.03;;;-0.30;99.90;;;;;;5105817;28;20791;-79
2022/12/10 10:10:10;;;;;;;56.65;40.00;;;-0.40;99.90;;;;;;5088060;28;20133;-79
2022/12/10 10:12:40;;;;;;;63.95;39.38;;;-0.30;99.90;;;;;;5087187;28;20016;-79
2022/12/10 10:15:14;;;;;;;79.32;59.63;;;-0.30;99.90;;;;;;5088086;28;20456;-79
2022/12/10 10:17:45;;;;;;;67.07;46.58;;;-0.30;99.90;;;;;;5087497;28;20032;-79
2022/12/10 10:20:12;;;;;;;65.95;47.80;;;-0.30;99.90;;;;;;5088458;28;20032;-79
2022/12/10 10:22:39;;;;;;;76.05;47.72;;;-0.20;99.90;;;;;;5088153;28;20440;-79
2022/12/10 10:25:13;;;;;;;74.45;39.40;;;-0.10;99.90;;;;;;5088225;28;20040;-79
2022/12/10 10:27:38;;;;;;;62.60;39.75;;;0.00;99.90;;;;;;5088007;28;20028;-79
2022/12/10 10:30:06;;;;;;;52.40;35.60;;;0.10;99.90;;;;;;5071383;28;20036;-79
2022/12/10 10:32:35;;;;;;;59.35;43.75;;;0.10;99.90;;;;;;5087880;28;20501;-79
2022/12/10 10:35:03;;;;;;;63.72;39.25;;;0.20;99.90;;;;;;5088103;28;20035;-79
2022/12/10 10:37:35;;;;;;;55.03;38.60;;;0.30;99.90;;;;;;5084688;28;20040;-79
2022/12/10 10:40:01;;;;;;;63.95;40.67;;;0.30;99.90;;;;;;5085909;28;20448;-79
2022/12/10 10:42:45;;;;;;;60.13;38.58;;;0.30;99.90;;;;;;5084311;28;20039;-79
2022/12/10 10:45:29;;;;;;;63.70;42.22;;;0.40;99.90;;;;;;5067651;28;20028;-79
2022/12/10 10:48:07;;;;;;;67.18;45.03;;;0.40;99.90;;;;;;5083115;28;20032;-79
2022/12/10 10:50:43;;;;;;;60.30;43.47;;;0.30;99.90;;;;;;5081572;28;20083;-79
2022/12/10 10:53:27;;;;;;;56.05;37.70;;;0.30;99.90;;;;;;5081068;28;20583;-78
2022/12/10 10:55:56;;;;;;;67.57;45.85;;;0.30;99.90;;;;;;5080001;28;20038;-79
2022/12/10 10:58:24;;;;;;;60.72;38.92;;;0.40;99.90;;;;;;5077773;28;20028;-78
2022/12/10 11:01:03;;;;;;;49.78;37.92;;;0.40;99.90;;;;;;5084447;28;20029;-78
2022/12/10 11:03:32;;;;;;;51.90;37.47;;;0.50;99.90;;;;;;5073046;28;20031;-79
2022/12/10 11:05:59;;;;;;;58.35;42.30;;;0.50;99.90;;;;;;5053944;28;20036;-78
2022/12/10 11:08:29;;;;;;;53.40;36.72;;;0.50;99.90;;;;;;5069436;28;20032;-78
2022/12/10 11:11:02;;;;;;;63.65;41.90;;;0.50;99.90;;;;;;5079291;28;20035;-78
2022/12/10 11:13:30;;;;;;;51.45;38.30;;;0.60;99.90;;;;;;5070417;28;20032;-78
2022/12/10 11:16:10;;;;;;;54.75;37.75;;;0.60;99.90;;;;;;5087508;28;20025;-78
2022/12/10 11:18:41;;;;;;;55.97;38.97;;;0.50;99.90;;;;;;5070554;28;20017;-78
2022/12/10 11:21:13;;;;;;;53.45;42.35;;;0.40;99.90;;;;;;5088924;28;20060;-78
2022/12/10 11:23:41;;;;;;;55.25;44.03;;;0.50;99.90;;;;;;5088284;28;20032;-78
2022/12/10 11:26:29;;;;;;;67.75;41.13;;;0.60;99.90;;;;;;5088628;28;20033;-78
2022/12/10 11:29:07;;;;;;;62.63;41.28;;;0.60;99.90;;;;;;5085915;28;20043;-78
2022/12/10 11:31:39;;;;;;;64.28;43.00;;;0.70;99.90;;;;;;5087014;28;20052;-78
2022/12/10 11:34:12;;;;;;;49.63;39.10;;;0.70;99.90;;;;;;5089277;28;20070;-78
2022/12/10 11:36:58;;;;;;;63.83;44.00;;;0.80;99.90;;;;;;5090904;28;20031;-78
2022/12/10 11:39:47;;;;;;;51.63;38.25;;;0.60;99.90;;;;;;5089013;28;20031;-78
2022/12/10 11:42:31;;;;;;;41.78;33.47;;;0.70;99.90;;;;;;5090844;28;20024;-78
2022/12/10 11:45:15;;;;;;;75.00;42.47;;;0.60;99.90;;;;;;5090283;28;20059;-78
2022/12/10 11:48:01;;;;;;;62.88;42.72;;;0.40;99.90;;;;;;5108817;28;20382;-77
2022/12/10 11:50:32;;;;;;;64.97;41.67;;;0.20;99.90;;;;;;5090619;28;20078;-78
2022/12/10 11:53:18;;;;;;;52.45;40.05;;;0.10;99.90;;;;;;5089264;28;20024;-77
2022/12/10 11:55:59;;;;;;;60.75;38.65;;;0.20;99.90;;;;;;5107878;28;20584;-77
2022/12/10 11:58:44;;;;;;;63.13;43.38;;;0.50;99.90;;;;;;5070383;28;20095;-77
2022/12/10 12:01:43;;;;;;;54.75;36.53;;;0.60;99.90;;;;;;5071691;28;20036;-77
2022/12/10 12:04:15;;;;;;;47.67;31.83;;;0.80;99.90;;;;;;5073322;28;20032;-77
2022/12/10 12:06:53;;;;;;;49.80;36.50;;;0.80;99.90;;;;;;5090218;28;20028;-78
2022/12/10 12:09:47;;;;;;;52.28;34.60;;;0.90;99.90;;;;;;5089929;28;20104;-77
2022/12/10 12:12:44;;;;;;;49.55;35.10;;;1.00;99.90;;;;;;5108140;28;20036;-78
2022/12/10 12:15:18;;;;;;;53.72;36.70;;;0.90;99.90;;;;;;5076628;28;20042;-78
2022/12/10 12:17:50;;;;;;;66.28;42.20;;;0.70;99.90;;;;;;5107809;28;20024;-77
2022/12/10 12:20:30;;;;;;;51.90;36.40;;;0.70;99.90;;;;;;5088738;28;20055;-77
2022/12/10 12:23:02;;;;;;;49.28;36.28;;;0.90;99.90;;;;;;5107983;28;20028;-78
2022/12/10 12:25:45;;;;;;;62.70;41.58;;;0.60;99.90;;;;;;5089493;28;20059;-77
2022/12/10 12:28:46;;;;;;;53.45;37.13;;;0.70;99.90;;;;;;5089881;28;20398;-77
2022/12/10 12:31:17;;;;;;;56.90;40.00;;;0.70;99.90;;;;;;5085047;28;20036;-77
2022/12/10 12:34:06;;;;;;;48.58;34.05;;;0.60;99.90;;;;;;5107939;28;20032;-79
2022/12/10 12:36:35;;;;;;;62.60;38.85;;;0.60;99.90;;;;;;5107523;28;20036;-78
2022/12/10 12:39:25;;;;;;;58.85;37.88;;;0.80;99.90;;;;;;5072941;28;20078;-78
2022/12/10 12:42:35;;;;;;;69.50;42.30;;;1.00;99.90;;;;;;5107562;28;20115;-78
2022/12/10 12:45:13;;;;;;;56.17;39.95;;;1.10;99.90;;;;;;5069399;28;20028;-78
2022/12/10 12:47:50;;;;;;;93.07;55.13;;;1.10;99.90;;;;;;5069192;28;20090;-78
2022/12/10 12:50:48;;;;;;;183.88;115.70;;;1.20;99.90;;;;;;5087095;28;20047;-78
2022/12/10 12:53:17;;;;;;;59.90;39.20;;;1.10;99.90;;;;;;5048570;28;20060;-78
2022/12/10 12:55:59;;;;;;;57.07;34.47;;;0.90;99.90;;;;;;5069129;28;20028;-78
2022/12/10 12:58:30;;;;;;;58.75;37.75;;;0.60;99.90;;;;;;5087177;28;20300;-78